NCAR-RAP Real-Time Weather Data

Output produced by METARs form (12 May 2021  12:19 UTC)
found at http://weather.rap.ucar.edu/surface/
 
KGTF 121153Z 21006KT 10SM CLR 01/01 A3020 RMK AO2 SLP248 70003 T00110006 10067 20006 52006 $
KGTF 121053Z 26003KT 10SM FEW048 02/02 A3020 RMK AO2 SLP247 T00220017 $
KGTF 120953Z 24007KT 10SM SCT055 BKN080 02/01 A3019 RMK AO2 SLP235 T00220011 $
KGTF 120853Z 19007KT 10SM FEW043 BKN065 OVC080 06/03 A3018 RMK AO2 SLP227 T00560033 58006 $
KGTF 120753Z 17003KT 10SM SCT044 BKN075 04/02 A3020 RMK AO2 SLP236 T00440022 $
KGTF 120653Z 04004KT 10SM SCT075 BKN110 04/02 A3020 RMK AO2 SLP235 T00440022 401560033 $
KGTF 120553Z 35006KT 10SM BKN045 OVC055 06/04 A3021 RMK AO2 RAB0456E17B33E46 SLP235 P0000 60000 T00610039 10128 20061 51010 $
KGTF 120453Z 16003KT 10SM SCT040 OVC060 08/02 A3020 RMK AO2 SLP230 T00830017 $
KGTF 120353Z 34008KT 10SM BKN048 OVC075 09/02 A3020 RMK AO2 SLP231 T00890022 $
KGTF 120253Z 26006KT 10SM FEW070 BKN100 07/03 A3017 RMK AO2 SLP230 T00720028 $
KGTF 120153Z 25006KT 10SM CLR 09/03 A3016 RMK AO2 SLP226 T00940028 $
KGTF 120053Z 00000KT 10SM OVC100 12/02 A3015 RMK AO2 SLP218 T01220017 $
KGTF 112353Z 35009G19KT 10SM SCT050 BKN070 OVC080 11/03 A3016 RMK AO2 WSHFT 2241 RAE16B36E51 SLP228 P0003 60003 T01060028 10156 20089 53009 $